Time;durP1;ratioP1;P1;durP2;ratioP2;P2;SDS_P1;SDS_P2;PMS_P1;PMS_P2;Temp;Humidity;BMP_temperature;BMP_pressure;BME280_temperature;BME280_humidity;BME280_pressure;Samples;Min_cycle;Max_cycle;Signal;HPM_P1;HPM_P2
2021/05/22 00:01:31;;;;;;;11.27;2.58;;;;;;;;;;4979064;28;39228;-79
2021/05/22 00:04:00;;;;;;;18.08;2.95;;;;;;;;;;4981552;28;35933;-79
2021/05/22 00:06:26;;;;;;;14.18;2.65;;;;;;;;;;4977825;28;39143;-79
2021/05/22 00:08:53;;;;;;;21.50;3.42;;;;;;;;;;4978571;28;38727;-78
2021/05/22 00:11:19;;;;;;;14.77;2.65;;;;;;;;;;4993777;28;39131;-77
2021/05/22 00:13:45;;;;;;;15.05;2.83;;;;;;;;;;4983618;28;36103;-78
2021/05/22 00:16:12;;;;;;;20.05;3.70;;;;;;;;;;5014447;28;38021;-78
2021/05/22 00:18:38;;;;;;;18.33;2.92;;;;;;;;;;5016543;28;39247;-78
2021/05/22 00:21:05;;;;;;;17.38;2.90;;;;;;;;;;5030016;28;37546;-78
2021/05/22 00:23:32;;;;;;;17.77;2.97;;;;;;;;;;5037555;28;38006;-77
2021/05/22 00:25:58;;;;;;;19.77;3.38;;;;;;;;;;5019361;28;37885;-79
2021/05/22 00:28:24;;;;;;;15.88;2.83;;;;;;;;;;5036904;28;39998;-77
2021/05/22 00:30:51;;;;;;;15.90;2.67;;;;;;;;;;5016642;28;37850;-78
2021/05/22 00:33:17;;;;;;;19.73;3.28;;;;;;;;;;4998263;28;35680;-77
2021/05/22 00:35:44;;;;;;;17.10;2.53;;;;;;;;;;5015192;28;39874;-77
2021/05/22 00:38:10;;;;;;;16.17;2.42;;;;;;;;;;5016068;28;39484;-78
2021/05/22 00:40:37;;;;;;;19.98;3.03;;;;;;;;;;4996944;28;37866;-77
2021/05/22 00:43:03;;;;;;;19.25;2.83;;;;;;;;;;5013583;28;37923;-79
2021/05/22 00:45:31;;;;;;;15.60;3.00;;;;;;;;;;4996402;28;38049;-76
2021/05/22 00:47:58;;;;;;;16.10;2.80;;;;;;;;;;5016674;28;38705;-77
2021/05/22 00:50:26;;;;;;;16.73;2.75;;;;;;;;;;5015298;28;41404;-77
2021/05/22 00:52:52;;;;;;;17.42;2.90;;;;;;;;;;5014397;28;35844;-77
2021/05/22 00:55:20;;;;;;;13.30;2.53;;;;;;;;;;5012849;28;40429;-77
2021/05/22 00:57:46;;;;;;;15.90;2.50;;;;;;;;;;5000604;28;39157;-77
2021/05/22 01:00:17;;;;;;;26.23;3.23;;;;;;;;;;4990457;28;38262;-77
2021/05/22 01:02:43;;;;;;;18.23;3.05;;;;;;;;;;4994798;28;37241;-77
2021/05/22 01:05:13;;;;;;;20.98;2.90;;;;;;;;;;4992729;28;38078;-77
2021/05/22 01:07:39;;;;;;;10.15;2.50;;;;;;;;;;4975534;28;40258;-77
2021/05/22 01:10:07;;;;;;;16.63;2.40;;;;;;;;;;4974326;28;39245;-77
2021/05/22 01:12:37;;;;;;;14.55;2.35;;;;;;;;;;4972622;28;35820;-77
2021/05/22 01:15:08;;;;;;;11.40;1.70;;;;;;;;;;4973984;28;39822;-77
2021/05/22 01:17:36;;;;;;;9.27;2.85;;;;;;;;;;4994056;28;46929;-77
2021/05/22 01:20:06;;;;;;;13.43;2.42;;;;;;;;;;4993530;28;38856;-77
2021/05/22 01:22:36;;;;;;;14.25;2.20;;;;;;;;;;5004008;28;48540;-76
2021/05/22 01:25:08;;;;;;;18.73;2.92;;;;;;;;;;5011754;28;39666;-77
2021/05/22 01:27:34;;;;;;;16.70;2.92;;;;;;;;;;5013001;28;49237;-78
2021/05/22 01:30:01;;;;;;;13.18;2.60;;;;;;;;;;5011051;28;39967;-76
2021/05/22 01:32:28;;;;;;;14.95;2.30;;;;;;;;;;5011716;28;46944;-77
2021/05/22 01:34:55;;;;;;;8.93;2.15;;;;;;;;;;5014688;28;38764;-78
2021/05/22 01:37:22;;;;;;;11.07;2.33;;;;;;;;;;5010946;28;40355;-77
2021/05/22 01:39:48;;;;;;;15.27;2.38;;;;;;;;;;5013774;28;38320;-77
2021/05/22 01:42:15;;;;;;;14.05;2.83;;;;;;;;;;4993685;28;37032;-77
2021/05/22 01:44:43;;;;;;;11.73;3.28;;;;;;;;;;5011850;28;39253;-77
2021/05/22 01:47:09;;;;;;;13.73;2.17;;;;;;;;;;4997030;28;39109;-77
2021/05/22 01:49:36;;;;;;;11.77;2.53;;;;;;;;;;4997534;28;37444;-77
2021/05/22 01:52:03;;;;;;;30.05;4.28;;;;;;;;;;5016851;28;38030;-77
2021/05/22 01:54:31;;;;;;;12.43;2.88;;;;;;;;;;4996200;28;40185;-78
2021/05/22 01:56:57;;;;;;;14.73;2.75;;;;;;;;;;4985169;28;39458;-77
2021/05/22 01:59:24;;;;;;;12.05;2.08;;;;;;;;;;4978427;28;37630;-76
2021/05/22 02:01:51;;;;;;;14.95;2.35;;;;;;;;;;4978246;28;37284;-77
2021/05/22 02:04:22;;;;;;;15.57;2.35;;;;;;;;;;4996697;28;38768;-77
2021/05/22 02:06:50;;;;;;;15.45;2.20;;;;;;;;;;4996037;28;38499;-77
2021/05/22 02:09:19;;;;;;;14.10;2.05;;;;;;;;;;4979452;28;38819;-77
2021/05/22 02:11:46;;;;;;;13.90;2.75;;;;;;;;;;4981228;28;35879;-77
2021/05/22 02:14:16;;;;;;;10.75;1.83;;;;;;;;;;4996161;28;39670;-77
2021/05/22 02:16:45;;;;;;;13.73;2.20;;;;;;;;;;4994637;28;39903;-77
2021/05/22 02:19:11;;;;;;;9.32;2.20;;;;;;;;;;4997195;28;38803;-77
2021/05/22 02:21:41;;;;;;;11.35;1.95;;;;;;;;;;5002805;28;36802;-77
2021/05/22 02:24:08;;;;;;;17.38;3.00;;;;;;;;;;5000707;28;39723;-77
2021/05/22 02:26:34;;;;;;;12.90;2.70;;;;;;;;;;5020224;28;40492;-77
2021/05/22 02:29:01;;;;;;;17.20;2.15;;;;;;;;;;5020142;28;39949;-76
2021/05/22 02:31:29;;;;;;;12.70;2.70;;;;;;;;;;5000118;28;35494;-77
2021/05/22 02:33:57;;;;;;;7.95;1.70;;;;;;;;;;4999981;28;37817;-78
2021/05/22 02:36:23;;;;;;;12.35;2.00;;;;;;;;;;4999993;28;38923;-76
2021/05/22 02:38:51;;;;;;;12.98;2.72;;;;;;;;;;5000037;28;39882;-77
2021/05/22 02:41:18;;;;;;;13.95;2.78;;;;;;;;;;5018130;28;37490;-78
2021/05/22 02:43:47;;;;;;;20.50;2.53;;;;;;;;;;5019941;28;38902;-77
2021/05/22 02:46:15;;;;;;;10.60;2.05;;;;;;;;;;5016002;28;38983;-77
2021/05/22 02:48:43;;;;;;;15.43;2.38;;;;;;;;;;5018706;28;39258;-77
2021/05/22 02:51:10;;;;;;;14.82;2.97;;;;;;;;;;5021696;28;36877;-77
2021/05/22 02:53:37;;;;;;;12.25;2.85;;;;;;;;;;5021558;28;39941;-79
2021/05/22 02:56:05;;;;;;;11.18;2.22;;;;;;;;;;5018205;28;37685;-77
2021/05/22 02:58:34;;;;;;;14.82;2.50;;;;;;;;;;5003016;28;37665;-77
2021/05/22 03:01:00;;;;;;;9.43;2.20;;;;;;;;;;5004471;28;35613;-77
2021/05/22 03:03:27;;;;;;;15.02;2.50;;;;;;;;;;5025293;28;47510;-78
2021/05/22 03:05:53;;;;;;;11.32;2.40;;;;;;;;;;5010538;28;40563;-78
2021/05/22 03:08:20;;;;;;;12.10;2.47;;;;;;;;;;5006040;28;38670;-78
2021/05/22 03:10:47;;;;;;;16.15;2.60;;;;;;;;;;4989625;28;36230;-77
2021/05/22 03:13:13;;;;;;;11.80;3.00;;;;;;;;;;4985685;28;37751;-78
2021/05/22 03:15:40;;;;;;;12.93;2.03;;;;;;;;;;4986294;28;38732;-78
2021/05/22 03:18:06;;;;;;;10.68;2.45;;;;;;;;;;4989068;28;39472;-77
2021/05/22 03:20:32;;;;;;;13.43;2.47;;;;;;;;;;5002914;28;36207;-78
2021/05/22 03:22:59;;;;;;;13.33;2.70;;;;;;;;;;5006278;28;37573;-78
2021/05/22 03:25:26;;;;;;;15.13;2.60;;;;;;;;;;5006724;28;39070;-77
2021/05/22 03:27:52;;;;;;;9.85;2.40;;;;;;;;;;5022301;28;38269;-78
2021/05/22 03:30:19;;;;;;;10.90;2.33;;;;;;;;;;5005042;28;36127;-77
2021/05/22 03:32:46;;;;;;;14.20;2.53;;;;;;;;;;5003553;28;39369;-77
2021/05/22 03:35:12;;;;;;;10.53;2.37;;;;;;;;;;5012944;28;39284;-78
2021/05/22 03:37:39;;;;;;;10.45;2.10;;;;;;;;;;5014872;28;38422;-77
2021/05/22 03:40:06;;;;;;;10.57;2.10;;;;;;;;;;4996309;28;37663;-77
2021/05/22 03:42:32;;;;;;;9.98;2.30;;;;;;;;;;5010343;28;40825;-77
2021/05/22 03:44:58;;;;;;;13.30;2.55;;;;;;;;;;5010429;28;38837;-77
2021/05/22 03:47:25;;;;;;;9.68;2.85;;;;;;;;;;5006853;28;38765;-78
2021/05/22 03:49:51;;;;;;;13.50;2.20;;;;;;;;;;5009759;28;37348;-78
2021/05/22 03:52:18;;;;;;;15.10;3.42;;;;;;;;;;5009793;28;39127;-77
2021/05/22 03:54:45;;;;;;;12.80;2.35;;;;;;;;;;4994297;28;38944;-78
2021/05/22 03:57:12;;;;;;;15.48;2.92;;;;;;;;;;4998812;28;38381;-77
2021/05/22 03:59:38;;;;;;;17.20;2.88;;;;;;;;;;4990951;28;37325;-77
2021/05/22 04:02:04;;;;;;;13.03;3.63;;;;;;;;;;4990158;28;39941;-77
2021/05/22 04:04:31;;;;;;;10.25;3.35;;;;;;;;;;4991626;28;39167;-77
2021/05/22 04:06:57;;;;;;;8.67;2.30;;;;;;;;;;4991348;28;39434;-78
2021/05/22 04:09:23;;;;;;;12.97;3.43;;;;;;;;;;5006634;28;36780;-78
2021/05/22 04:11:50;;;;;;;13.10;2.60;;;;;;;;;;4990862;28;38582;-77
2021/05/22 04:14:16;;;;;;;15.52;2.78;;;;;;;;;;5010390;28;38744;-78
2021/05/22 04:16:43;;;;;;;11.90;2.70;;;;;;;;;;5008034;28;38689;-78
2021/05/22 04:19:09;;;;;;;11.03;3.90;;;;;;;;;;5008769;28;38358;-77
2021/05/22 04:21:35;;;;;;;13.83;3.20;;;;;;;;;;5012936;28;40742;-78
2021/05/22 04:24:02;;;;;;;14.27;2.65;;;;;;;;;;5009178;28;39044;-77
2021/05/22 04:26:28;;;;;;;15.20;2.33;;;;;;;;;;4990872;28;47257;-78
2021/05/22 04:28:54;;;;;;;15.00;2.80;;;;;;;;;;4992681;28;36964;-77
2021/05/22 04:31:21;;;;;;;13.52;3.50;;;;;;;;;;4989395;28;37518;-77
2021/05/22 04:33:47;;;;;;;12.00;2.42;;;;;;;;;;4992271;28;37736;-77
2021/05/22 04:36:14;;;;;;;11.63;3.17;;;;;;;;;;4991089;28;39911;-77
2021/05/22 04:38:40;;;;;;;9.63;2.55;;;;;;;;;;5009707;28;37070;-77
2021/05/22 04:41:06;;;;;;;13.97;3.50;;;;;;;;;;4990765;28;37700;-77
2021/05/22 04:43:33;;;;;;;12.27;3.33;;;;;;;;;;4986269;28;39309;-77
2021/05/22 04:45:59;;;;;;;9.82;3.05;;;;;;;;;;4971612;28;38324;-77
2021/05/22 04:48:26;;;;;;;12.52;2.90;;;;;;;;;;4991721;28;36184;-78
2021/05/22 04:50:54;;;;;;;17.63;3.50;;;;;;;;;;5008825;28;40068;-77
2021/05/22 04:53:21;;;;;;;8.95;3.30;;;;;;;;;;5007712;28;39314;-78
2021/05/22 04:55:47;;;;;;;12.55;3.00;;;;;;;;;;4999367;28;40683;-77
2021/05/22 04:58:14;;;;;;;11.90;3.40;;;;;;;;;;4989650;28;36881;-77
2021/05/22 05:00:40;;;;;;;13.53;4.00;;;;;;;;;;4990310;28;38698;-76
2021/05/22 05:03:06;;;;;;;12.47;3.90;;;;;;;;;;4996540;28;39202;-77
2021/05/22 05:05:33;;;;;;;12.95;3.42;;;;;;;;;;5008288;28;38903;-77
2021/05/22 05:07:59;;;;;;;13.98;4.00;;;;;;;;;;5009777;28;38126;-77
2021/05/22 05:10:26;;;;;;;8.23;2.97;;;;;;;;;;5008330;28;39797;-77
2021/05/22 05:12:53;;;;;;;10.82;3.83;;;;;;;;;;5007852;28;38789;-76
2021/05/22 05:15:19;;;;;;;11.40;3.63;;;;;;;;;;5004587;28;39169;-78
2021/05/22 05:17:46;;;;;;;12.73;3.85;;;;;;;;;;5010161;28;37336;-77
2021/05/22 05:20:12;;;;;;;7.88;3.58;;;;;;;;;;5009461;28;39897;-79
2021/05/22 05:22:39;;;;;;;13.93;3.67;;;;;;;;;;4991711;28;40122;-79
2021/05/22 05:25:06;;;;;;;13.35;4.28;;;;;;;;;;5007978;28;39261;-78
2021/05/22 05:27:33;;;;;;;8.93;3.53;;;;;;;;;;4991779;28;37561;-79
2021/05/22 05:29:59;;;;;;;7.57;3.97;;;;;;;;;;4991670;28;39137;-79
2021/05/22 05:32:26;;;;;;;15.70;4.82;;;;;;;;;;5007090;28;39718;-79
2021/05/22 05:34:52;;;;;;;18.02;5.28;;;;;;;;;;4990404;28;39117;-79
2021/05/22 05:37:18;;;;;;;16.23;5.35;;;;;;;;;;4989793;28;36968;-79
2021/05/22 05:39:45;;;;;;;11.20;4.93;;;;;;;;;;5007343;28;39497;-79
2021/05/22 05:42:11;;;;;;;12.93;4.57;;;;;;;;;;5006224;28;39297;-78
2021/05/22 05:44:38;;;;;;;9.95;4.35;;;;;;;;;;5006802;28;39933;-77
2021/05/22 05:47:04;;;;;;;15.80;6.00;;;;;;;;;;5006333;28;38552;-79
2021/05/22 05:49:31;;;;;;;16.17;4.35;;;;;;;;;;5008472;28;39080;-79
2021/05/22 05:51:58;;;;;;;12.57;3.72;;;;;;;;;;5008047;28;39771;-79
2021/05/22 05:54:24;;;;;;;19.63;5.95;;;;;;;;;;5008175;28;38437;-79
2021/05/22 05:56:51;;;;;;;13.68;4.35;;;;;;;;;;5006323;28;36145;-79
2021/05/22 05:59:17;;;;;;;12.73;4.28;;;;;;;;;;5011899;28;39092;-79
2021/05/22 06:01:44;;;;;;;12.70;4.80;;;;;;;;;;5010479;28;38348;-78
2021/05/22 06:04:10;;;;;;;10.23;4.20;;;;;;;;;;4992565;28;39303;-79
2021/05/22 06:06:37;;;;;;;9.68;3.95;;;;;;;;;;5011820;28;36745;-78
2021/05/22 06:09:05;;;;;;;11.10;3.67;;;;;;;;;;4994826;28;38872;-79
2021/05/22 06:11:33;;;;;;;10.90;4.60;;;;;;;;;;5012177;28;49012;-78
2021/05/22 06:14:00;;;;;;;10.65;3.67;;;;;;;;;;5010906;28;37875;-80
2021/05/22 06:16:44;;;;;;;9.60;3.50;;;;;;;;;;5008144;28;37029;-79
2021/05/22 06:19:11;;;;;;;15.25;4.30;;;;;;;;;;5012145;28;39080;-79
2021/05/22 06:21:38;;;;;;;10.75;4.22;;;;;;;;;;5014607;28;37977;-79
2021/05/22 06:24:05;;;;;;;9.90;3.92;;;;;;;;;;4993214;28;40281;-78
2021/05/22 06:26:31;;;;;;;12.77;4.45;;;;;;;;;;5012175;28;37404;-79
2021/05/22 06:28:58;;;;;;;13.45;4.50;;;;;;;;;;5015391;28;38707;-79
2021/05/22 06:31:24;;;;;;;18.20;5.38;;;;;;;;;;5013656;28;37812;-79
2021/05/22 06:33:51;;;;;;;11.45;5.57;;;;;;;;;;5017862;28;38615;-78
2021/05/22 06:36:17;;;;;;;10.57;4.15;;;;;;;;;;5014419;28;36878;-77
2021/05/22 06:38:43;;;;;;;9.02;4.43;;;;;;;;;;5015427;28;40276;-78
2021/05/22 06:41:10;;;;;;;10.07;4.68;;;;;;;;;;5015138;28;38801;-78
2021/05/22 06:43:36;;;;;;;9.90;4.38;;;;;;;;;;5015234;28;37424;-79
2021/05/22 06:48:38;;;;;;;11.63;4.38;;;;;;;;;;5018000;28;40041;-77
2021/05/22 06:51:05;;;;;;;12.25;4.65;;;;;;;;;;5011265;28;39702;-77
2021/05/22 06:53:31;;;;;;;10.68;4.85;;;;;;;;;;5013768;28;38756;-77
2021/05/22 06:55:58;;;;;;;9.98;4.45;;;;;;;;;;5013094;28;37351;-78
2021/05/22 06:58:24;;;;;;;8.70;4.15;;;;;;;;;;4992361;28;40474;-78
2021/05/22 07:00:51;;;;;;;13.77;4.93;;;;;;;;;;5013753;28;40180;-78
2021/05/22 07:03:17;;;;;;;12.63;3.65;;;;;;;;;;4983794;28;39242;-78
2021/05/22 07:05:44;;;;;;;11.43;3.90;;;;;;;;;;4994957;28;36937;-78
2021/05/22 07:08:10;;;;;;;15.43;3.40;;;;;;;;;;4979963;28;37766;-78
2021/05/22 07:10:37;;;;;;;16.00;3.65;;;;;;;;;;4978901;28;37638;-78
2021/05/22 07:13:04;;;;;;;13.68;2.75;;;;;;;;;;5014290;28;38747;-78
2021/05/22 07:15:30;;;;;;;15.95;3.15;;;;;;;;;;5018278;28;36857;-78
2021/05/22 07:17:57;;;;;;;15.57;3.00;;;;;;;;;;5019442;28;38717;-78
2021/05/22 07:20:23;;;;;;;12.23;2.65;;;;;;;;;;5021442;28;39311;-79
2021/05/22 07:22:51;;;;;;;14.50;3.22;;;;;;;;;;5002836;28;40248;-80
2021/05/22 07:25:18;;;;;;;14.05;2.30;;;;;;;;;;5001272;28;35921;-79
2021/05/22 07:27:45;;;;;;;14.85;2.60;;;;;;;;;;5023612;28;39395;-79
2021/05/22 07:30:12;;;;;;;11.93;2.33;;;;;;;;;;5003378;28;38629;-79
2021/05/22 07:32:39;;;;;;;8.82;2.42;;;;;;;;;;5003466;28;39001;-79
2021/05/22 07:35:07;;;;;;;9.73;2.45;;;;;;;;;;5001823;28;35132;-79
2021/05/22 07:37:33;;;;;;;14.10;2.30;;;;;;;;;;5001209;28;37494;-79
2021/05/22 07:40:00;;;;;;;13.52;2.85;;;;;;;;;;5017330;28;38533;-79
2021/05/22 07:42:27;;;;;;;9.63;1.95;;;;;;;;;;4998741;28;39739;-79
2021/05/22 07:44:54;;;;;;;15.82;2.63;;;;;;;;;;4999832;28;37348;-79
2021/05/22 07:47:20;;;;;;;11.27;2.38;;;;;;;;;;4995452;28;39542;-79
2021/05/22 07:49:47;;;;;;;11.65;2.78;;;;;;;;;;4999021;28;37761;-79
2021/05/22 07:52:13;;;;;;;12.82;2.28;;;;;;;;;;4998055;28;39421;-79
2021/05/22 07:54:40;;;;;;;9.65;2.15;;;;;;;;;;4994350;28;37572;-80
2021/05/22 07:57:08;;;;;;;12.10;2.47;;;;;;;;;;4979641;28;39120;-79
2021/05/22 07:59:34;;;;;;;6.95;1.80;;;;;;;;;;4983722;28;39995;-79
2021/05/22 08:02:01;;;;;;;8.00;1.92;;;;;;;;;;5017469;28;38819;-80
2021/05/22 08:04:27;;;;;;;14.15;2.47;;;;;;;;;;5017703;28;48703;-79
2021/05/22 08:06:54;;;;;;;10.98;2.03;;;;;;;;;;5013590;28;39604;-79
2021/05/22 08:09:20;;;;;;;7.80;2.33;;;;;;;;;;4995136;28;40146;-79
2021/05/22 08:11:47;;;;;;;7.88;1.60;;;;;;;;;;4995246;28;38763;-80
2021/05/22 08:14:13;;;;;;;4.47;1.60;;;;;;;;;;4994660;28;36963;-79
2021/05/22 08:16:40;;;;;;;6.88;1.75;;;;;;;;;;4994264;28;38947;-79
2021/05/22 08:19:06;;;;;;;8.30;2.10;;;;;;;;;;4979236;28;39612;-79
2021/05/22 08:21:33;;;;;;;5.13;1.48;;;;;;;;;;4988028;28;39365;-79
2021/05/22 08:24:00;;;;;;;9.55;2.20;;;;;;;;;;4995180;28;38502;-80
2021/05/22 08:26:26;;;;;;;13.68;2.35;;;;;;;;;;5015313;28;39329;-79
2021/05/22 08:28:53;;;;;;;8.82;1.85;;;;;;;;;;5019209;28;39557;-78
2021/05/22 08:31:20;;;;;;;8.13;1.80;;;;;;;;;;4996459;28;39454;-79
2021/05/22 08:33:47;;;;;;;9.93;1.67;;;;;;;;;;4996856;28;37361;-79
2021/05/22 08:36:13;;;;;;;6.97;1.50;;;;;;;;;;5013229;28;39219;-79
2021/05/22 08:38:40;;;;;;;8.88;2.03;;;;;;;;;;4995581;28;39047;-78
2021/05/22 08:41:07;;;;;;;8.18;1.98;;;;;;;;;;4994099;28;40084;-79
2021/05/22 08:43:34;;;;;;;4.85;1.55;;;;;;;;;;4994964;28;37755;-79
2021/05/22 08:46:00;;;;;;;8.05;1.50;;;;;;;;;;4977808;28;38040;-79
2021/05/22 08:48:27;;;;;;;6.63;2.03;;;;;;;;;;4975965;28;39247;-78
2021/05/22 08:50:53;;;;;;;5.68;1.50;;;;;;;;;;4981939;28;38947;-78
2021/05/22 08:53:22;;;;;;;4.15;1.30;;;;;;;;;;4978543;28;36937;-79
2021/05/22 08:55:48;;;;;;;3.35;1.02;;;;;;;;;;4994021;28;39395;-79
2021/05/22 08:58:15;;;;;;;7.93;1.40;;;;;;;;;;4992677;28;39173;-79
2021/05/22 09:00:42;;;;;;;6.35;1.65;;;;;;;;;;4975051;28;37409;-79
2021/05/22 09:03:12;;;;;;;9.13;1.95;;;;;;;;;;5010410;28;37169;-79
2021/05/22 09:05:41;;;;;;;4.13;1.75;;;;;;;;;;5011037;28;38581;-79
2021/05/22 09:08:11;;;;;;;5.75;2.35;;;;;;;;;;5010760;28;40413;-78
2021/05/22 09:10:41;;;;;;;5.78;2.50;;;;;;;;;;5015151;28;38430;-80
2021/05/22 09:13:10;;;;;;;8.60;2.80;;;;;;;;;;5012846;28;37383;-78
2021/05/22 09:15:41;;;;;;;5.22;3.03;;;;;;;;;;5011057;28;40011;-78
2021/05/22 09:18:14;;;;;;;7.07;3.00;;;;;;;;;;5013419;28;40275;-78
2021/05/22 09:20:40;;;;;;;;;;;;;;;;;;5002384;28;40201;-78
2021/05/22 09:23:06;;;;;;;6.03;3.50;;;;;;;;;;5013422;28;37503;-78
2021/05/22 09:25:43;;;;;;;6.93;2.78;;;;;;;;;;5012953;28;40159;-78
2021/05/22 09:28:11;;;;;;;8.00;2.83;;;;;;;;;;4992323;28;39672;-78
2021/05/22 09:30:38;;;;;;;6.50;2.70;;;;;;;;;;4991153;28;39869;-79
2021/05/22 09:33:10;;;;;;;8.07;2.90;;;;;;;;;;4990711;28;37893;-78
2021/05/22 09:35:37;;;;;;;7.47;2.60;;;;;;;;;;5013680;28;39455;-78
2021/05/22 09:38:03;;;;;;;5.82;2.17;;;;;;;;;;5011884;28;39439;-79
2021/05/22 09:40:34;;;;;;;5.57;2.65;;;;;;;;;;4983116;28;38003;-77
2021/05/22 09:43:02;;;;;;;3.28;2.10;;;;;;;;;;4975048;28;37130;-78
2021/05/22 09:45:33;;;;;;;5.47;1.63;;;;;;;;;;5009030;28;47171;-78
2021/05/22 09:48:10;;;;;;;6.63;2.20;;;;;;;;;;4995025;28;39758;-78
2021/05/22 09:50:40;;;;;;;3.97;1.60;;;;;;;;;;4995307;28;47257;-78
2021/05/22 09:53:25;;;;;;;7.93;1.70;;;;;;;;;;4987810;28;36072;-78
2021/05/22 09:56:10;;;;;;;4.10;1.60;;;;;;;;;;4990751;28;37977;-77
2021/05/22 09:58:37;;;;;;;4.30;2.13;;;;;;;;;;4999971;28;48241;-78
2021/05/22 10:01:04;;;;;;;4.93;1.80;;;;;;;;;;5012112;28;38708;-79
2021/05/22 10:03:31;;;;;;;3.08;1.70;;;;;;;;;;5015077;28;37640;-78
2021/05/22 10:05:57;;;;;;;3.08;1.83;;;;;;;;;;4986160;28;37944;-79
2021/05/22 10:08:23;;;;;;;7.40;2.00;;;;;;;;;;4984918;28;40343;-78
2021/05/22 10:10:51;;;;;;;7.53;1.52;;;;;;;;;;4979261;28;39771;-79
2021/05/22 10:13:19;;;;;;;3.65;1.40;;;;;;;;;;4980813;28;37560;-79
2021/05/22 10:15:47;;;;;;;3.03;1.58;;;;;;;;;;4983847;28;39946;-79
2021/05/22 10:18:14;;;;;;;5.63;1.58;;;;;;;;;;5003061;28;39117;-80
2021/05/22 10:20:41;;;;;;;2.72;1.52;;;;;;;;;;5011923;28;38623;-78
2021/05/22 10:23:08;;;;;;;7.22;1.60;;;;;;;;;;4994394;28;35932;-80
2021/05/22 10:25:34;;;;;;;3.35;1.70;;;;;;;;;;5007947;28;40103;-78
2021/05/22 10:28:01;;;;;;;2.10;1.40;;;;;;;;;;4989734;28;37562;-80
2021/05/22 10:30:27;;;;;;;3.22;1.50;;;;;;;;;;5005358;28;47730;-79
2021/05/22 10:33:01;;;;;;;7.10;2.00;;;;;;;;;;4980390;28;36427;-79
2021/05/22 10:35:28;;;;;;;5.03;1.15;;;;;;;;;;4998861;28;48353;-78
2021/05/22 10:37:57;;;;;;;3.38;1.63;;;;;;;;;;4991321;28;39927;-79
2021/05/22 10:40:42;;;;;;;3.90;2.05;;;;;;;;;;4990924;28;39005;-78
2021/05/22 10:43:09;;;;;;;4.63;2.10;;;;;;;;;;4994725;28;37161;-78
2021/05/22 10:45:40;;;;;;;2.72;2.00;;;;;;;;;;4978928;28;39586;-78
2021/05/22 10:48:08;;;;;;;3.30;2.15;;;;;;;;;;4985900;28;39515;-78
2021/05/22 10:50:35;;;;;;;5.30;2.72;;;;;;;;;;4992978;28;40232;-78
2021/05/22 10:53:17;;;;;;;7.18;2.75;;;;;;;;;;4996175;28;37130;-78
2021/05/22 10:55:43;;;;;;;6.72;2.90;;;;;;;;;;4984246;28;38931;-78
2021/05/22 10:58:11;;;;;;;8.60;3.65;;;;;;;;;;4978076;28;39510;-78
2021/05/22 11:00:38;;;;;;;5.03;3.17;;;;;;;;;;5009472;28;38400;-78
2021/05/22 11:03:07;;;;;;;9.48;3.40;;;;;;;;;;4975985;28;36715;-79
2021/05/22 11:05:37;;;;;;;5.78;2.78;;;;;;;;;;4981583;28;37817;-79
2021/05/22 11:08:04;;;;;;;4.68;2.70;;;;;;;;;;4980735;28;39509;-78
2021/05/22 11:10:37;;;;;;;9.82;3.70;;;;;;;;;;5008570;28;38141;-78
2021/05/22 11:13:04;;;;;;;5.30;2.92;;;;;;;;;;5003732;28;38226;-78
2021/05/22 11:15:37;;;;;;;7.40;2.60;;;;;;;;;;4975980;28;40515;-78
2021/05/22 11:18:04;;;;;;;5.22;2.80;;;;;;;;;;4978880;28;39180;-78
2021/05/22 11:20:30;;;;;;;8.80;3.17;;;;;;;;;;4986686;28;37991;-78
2021/05/22 11:23:00;;;;;;;6.18;2.72;;;;;;;;;;4985576;28;37740;-78
2021/05/22 11:25:29;;;;;;;5.78;3.78;;;;;;;;;;4998754;28;47800;-78
2021/05/22 11:28:00;;;;;;;6.32;3.38;;;;;;;;;;5009554;28;39461;-78
2021/05/22 11:30:35;;;;;;;9.23;4.10;;;;;;;;;;4997459;28;39753;-78
2021/05/22 11:33:08;;;;;;;10.40;3.95;;;;;;;;;;4985541;28;37071;-76
2021/05/22 11:35:36;;;;;;;13.35;4.75;;;;;;;;;;5000955;28;38975;-77
2021/05/22 11:38:14;;;;;;;8.10;3.80;;;;;;;;;;4979105;28;37726;-77
2021/05/22 11:40:40;;;;;;;7.47;4.05;;;;;;;;;;5009389;28;38214;-77
2021/05/22 11:43:13;;;;;;;7.82;3.00;;;;;;;;;;5009960;28;36978;-77
2021/05/22 11:45:39;;;;;;;;;;;;;;;;;;4992659;28;37902;-77
2021/05/22 11:48:24;;;;;;;9.00;2.85;;;;;;;;;;4991640;28;37480;-77
2021/05/22 11:50:51;;;;;;;3.97;2.38;;;;;;;;;;4991672;28;37569;-78
2021/05/22 11:53:18;;;;;;;8.00;2.72;;;;;;;;;;4991596;28;36716;-77
2021/05/22 11:55:56;;;;;;;11.40;3.67;;;;;;;;;;4982534;28;37883;-77
2021/05/22 11:58:23;;;;;;;5.65;2.72;;;;;;;;;;5013774;28;40018;-79
2021/05/22 12:00:49;;;;;;;5.90;3.03;;;;;;;;;;4993609;28;37467;-78
2021/05/22 12:03:23;;;;;;;7.57;3.08;;;;;;;;;;4994090;28;36986;-78
2021/05/22 12:05:50;;;;;;;8.18;3.72;;;;;;;;;;4994562;28;37751;-77
2021/05/22 12:08:17;;;;;;;7.50;3.50;;;;;;;;;;4991630;28;38089;-78
2021/05/22 12:10:43;;;;;;;8.35;3.13;;;;;;;;;;5011319;28;38692;-78
2021/05/22 12:13:10;;;;;;;4.72;3.08;;;;;;;;;;4992885;28;35902;-78
2021/05/22 12:15:38;;;;;;;6.85;3.38;;;;;;;;;;4991299;28;37799;-78
2021/05/22 12:18:06;;;;;;;6.15;2.60;;;;;;;;;;4992098;28;39418;-77
2021/05/22 12:20:45;;;;;;;5.57;2.83;;;;;;;;;;5019411;28;39775;-78
2021/05/22 12:23:23;;;;;;;4.95;2.88;;;;;;;;;;5010706;28;35846;-78
2021/05/22 12:25:51;;;;;;;6.82;3.22;;;;;;;;;;4999655;28;37956;-77
2021/05/22 12:28:18;;;;;;;5.32;2.70;;;;;;;;;;4991550;28;39372;-78
2021/05/22 12:30:44;;;;;;;9.23;3.10;;;;;;;;;;4990447;28;37729;-78
2021/05/22 12:33:12;;;;;;;7.78;3.05;;;;;;;;;;5010313;28;36978;-78
2021/05/22 12:35:38;;;;;;;6.53;3.20;;;;;;;;;;4992166;28;39637;-77
2021/05/22 12:38:05;;;;;;;13.77;3.22;;;;;;;;;;4991658;28;37762;-77
2021/05/22 12:40:51;;;;;;;4.75;2.90;;;;;;;;;;4995942;28;37363;-78
2021/05/22 12:43:18;;;;;;;7.57;3.10;;;;;;;;;;5009350;28;37260;-77
2021/05/22 12:45:46;;;;;;;8.30;2.70;;;;;;;;;;4990149;28;37881;-78
2021/05/22 12:48:22;;;;;;;5.97;2.30;;;;;;;;;;4990203;28;38704;-77
2021/05/22 12:50:49;;;;;;;3.10;2.38;;;;;;;;;;4989700;28;38843;-78
2021/05/22 12:53:27;;;;;;;7.70;2.30;;;;;;;;;;5009347;28;37114;-78
2021/05/22 12:56:01;;;;;;;5.78;2.67;;;;;;;;;;5008624;28;38358;-79
2021/05/22 12:58:27;;;;;;;7.80;2.72;;;;;;;;;;5007249;28;47195;-78
2021/05/22 13:00:55;;;;;;;6.15;2.75;;;;;;;;;;5007736;28;39624;-78
2021/05/22 13:03:38;;;;;;;8.50;3.08;;;;;;;;;;4990624;28;37025;-78
2021/05/22 13:06:04;;;;;;;7.35;3.00;;;;;;;;;;5006250;28;38724;-78
2021/05/22 13:08:31;;;;;;;3.92;1.90;;;;;;;;;;5009481;28;39156;-78
2021/05/22 13:11:07;;;;;;;4.22;2.40;;;;;;;;;;4997285;28;39087;-78
2021/05/22 13:13:34;;;;;;;7.10;1.92;;;;;;;;;;4988769;28;48810;-77
2021/05/22 13:16:05;;;;;;;10.57;2.50;;;;;;;;;;4974509;28;39868;-77
2021/05/22 13:18:31;;;;;;;5.05;1.95;;;;;;;;;;5008231;28;49249;-77
2021/05/22 13:21:02;;;;;;;7.90;2.40;;;;;;;;;;5021775;28;38732;-77
2021/05/22 13:23:38;;;;;;;4.93;1.73;;;;;;;;;;5011202;28;47555;-77
2021/05/22 13:26:05;;;;;;;2.90;1.63;;;;;;;;;;5027963;28;39175;-77
2021/05/22 13:28:33;;;;;;;4.13;1.88;;;;;;;;;;5028795;28;38730;-78
2021/05/22 13:31:10;;;;;;;4.55;1.90;;;;;;;;;;5009768;28;38609;-77
2021/05/22 13:33:38;;;;;;;4.93;1.98;;;;;;;;;;5000286;28;47276;-76
2021/05/22 13:36:04;;;;;;;5.07;1.60;;;;;;;;;;5004205;28;39819;-78
2021/05/22 13:38:31;;;;;;;3.90;1.40;;;;;;;;;;5007812;28;39732;-77
2021/05/22 13:40:57;;;;;;;6.13;1.70;;;;;;;;;;4994927;28;39021;-77
2021/05/22 13:43:24;;;;;;;4.03;1.70;;;;;;;;;;4970175;28;37555;-77
2021/05/22 13:45:50;;;;;;;4.75;1.60;;;;;;;;;;4968888;28;39585;-77
2021/05/22 13:48:17;;;;;;;5.95;2.00;;;;;;;;;;4988518;28;38770;-77
2021/05/22 13:50:43;;;;;;;5.25;2.08;;;;;;;;;;5006996;28;39172;-77
2021/05/22 13:53:09;;;;;;;4.50;1.55;;;;;;;;;;5006498;28;36946;-78
2021/05/22 13:55:36;;;;;;;5.00;1.45;;;;;;;;;;5000117;28;38551;-77
2021/05/22 13:58:03;;;;;;;5.03;1.52;;;;;;;;;;4987974;28;39471;-77
2021/05/22 14:00:29;;;;;;;3.60;1.30;;;;;;;;;;4988155;28;37720;-77
2021/05/22 14:02:56;;;;;;;3.85;1.30;;;;;;;;;;5009295;28;36687;-77
2021/05/22 14:05:22;;;;;;;2.15;1.30;;;;;;;;;;5007147;28;39143;-79
2021/05/22 14:07:49;;;;;;;4.53;1.40;;;;;;;;;;5008031;28;39140;-79
2021/05/22 14:10:15;;;;;;;3.88;1.55;;;;;;;;;;4988384;28;38679;-79
2021/05/22 14:12:42;;;;;;;4.50;1.90;;;;;;;;;;4990360;28;38743;-77
2021/05/22 14:15:09;;;;;;;3.53;1.27;;;;;;;;;;5006256;28;39978;-77
2021/05/22 14:17:36;;;;;;;3.40;1.30;;;;;;;;;;5008846;28;40075;-78
2021/05/22 14:20:07;;;;;;;3.08;1.23;;;;;;;;;;5016073;28;38351;-78
2021/05/22 14:22:34;;;;;;;4.22;1.50;;;;;;;;;;5026157;28;48885;-78
2021/05/22 14:25:01;;;;;;;3.92;1.92;;;;;;;;;;5001111;28;39437;-78
2021/05/22 14:27:28;;;;;;;4.47;1.60;;;;;;;;;;4991482;28;47147;-77
2021/05/22 14:29:54;;;;;;;5.60;1.85;;;;;;;;;;5009791;28;38396;-78
2021/05/22 14:32:21;;;;;;;4.05;1.70;;;;;;;;;;4990777;28;40609;-77
2021/05/22 14:34:47;;;;;;;4.60;1.92;;;;;;;;;;5010833;28;39781;-78
2021/05/22 14:37:14;;;;;;;4.60;2.20;;;;;;;;;;5008531;28;39638;-78
2021/05/22 14:39:40;;;;;;;3.72;2.10;;;;;;;;;;4989996;28;39071;-78
2021/05/22 14:42:06;;;;;;;4.20;1.75;;;;;;;;;;4989852;28;38161;-77
2021/05/22 14:44:33;;;;;;;4.70;1.90;;;;;;;;;;4992227;28;39930;-78